sensor_id;sensor_type;location;lat;lon;timestamp;temperature;humidity
55203;DHT22;41077;52.956;6.796;2023-02-15T00:01:19;2.50;99.90
55203;DHT22;41077;52.956;6.796;2023-02-15T00:03:44;2.50;99.90
55203;DHT22;41077;52.956;6.796;2023-02-15T00:06:12;2.40;99.90
55203;DHT22;41077;52.956;6.796;2023-02-15T00:08:38;2.40;99.90
55203;DHT22;41077;52.956;6.796;2023-02-15T00:11:12;2.40;99.90
55203;DHT22;41077;52.956;6.796;2023-02-15T00:13:38;2.30;99.90
55203;DHT22;41077;52.956;6.796;2023-02-15T00:16:10;2.30;99.90
55203;DHT22;41077;52.956;6.796;2023-02-15T00:18:37;2.30;99.90
55203;DHT22;41077;52.956;6.796;2023-02-15T00:21:08;2.20;99.90
55203;DHT22;41077;52.956;6.796;2023-02-15T00:23:34;2.20;99.90
55203;DHT22;41077;52.956;6.796;2023-02-15T00:26:05;2.20;99.90
55203;DHT22;41077;52.956;6.796;2023-02-15T00:28:31;2.10;99.90
55203;DHT22;41077;52.956;6.796;2023-02-15T00:31:06;2.20;99.90
55203;DHT22;41077;52.956;6.796;2023-02-15T00:33:31;2.10;99.90
55203;DHT22;41077;52.956;6.796;2023-02-15T00:36:01;2.10;99.90
55203;DHT22;41077;52.956;6.796;2023-02-15T00:38:28;2.10;99.90
55203;DHT22;41077;52.956;6.796;2023-02-15T00:40:58;2.10;99.90
55203;DHT22;41077;52.956;6.796;2023-02-15T00:43:25;2.00;99.90
55203;DHT22;41077;52.956;6.796;2023-02-15T00:45:50;2.00;99.90
55203;DHT22;41077;52.956;6.796;2023-02-15T00:48:17;2.10;99.90
55203;DHT22;41077;52.956;6.796;2023-02-15T00:50:45;2.00;99.90
55203;DHT22;41077;52.956;6.796;2023-02-15T00:53:11;2.00;99.90
55203;DHT22;41077;52.956;6.796;2023-02-15T00:55:37;1.90;99.90
55203;DHT22;41077;52.956;6.796;2023-02-15T00:58:04;2.00;99.90
55203;DHT22;41077;52.956;6.796;2023-02-15T01:00:30;2.00;99.90
55203;DHT22;41077;52.956;6.796;2023-02-15T01:02:55;1.90;99.90
55203;DHT22;41077;52.956;6.796;2023-02-15T01:05:21;1.90;99.90
55203;DHT22;41077;52.956;6.796;2023-02-15T01:07:47;1.80;99.90
55203;DHT22;41077;52.956;6.796;2023-02-15T01:10:12;1.80;99.90
55203;DHT22;41077;52.956;6.796;2023-02-15T01:12:38;1.80;99.90
55203;DHT22;41077;52.956;6.796;2023-02-15T01:15:04;1.80;99.90
55203;DHT22;41077;52.956;6.796;2023-02-15T01:17:31;1.80;99.90
55203;DHT22;41077;52.956;6.796;2023-02-15T01:19:56;1.80;99.90
55203;DHT22;41077;52.956;6.796;2023-02-15T01:22:22;1.90;99.90
55203;DHT22;41077;52.956;6.796;2023-02-15T01:24:51;2.00;99.90
55203;DHT22;41077;52.956;6.796;2023-02-15T01:27:17;2.00;99.90
55203;DHT22;41077;52.956;6.796;2023-02-15T01:29:43;2.00;99.90
55203;DHT22;41077;52.956;6.796;2023-02-15T01:32:08;2.00;99.90
55203;DHT22;41077;52.956;6.796;2023-02-15T01:34:34;2.10;99.90
55203;DHT22;41077;52.956;6.796;2023-02-15T01:37:00;2.10;99.90
55203;DHT22;41077;52.956;6.796;2023-02-15T01:39:25;2.20;99.90
55203;DHT22;41077;52.956;6.796;2023-02-15T01:41:51;2.30;99.90
55203;DHT22;41077;52.956;6.796;2023-02-15T01:44:45;2.30;99.90
55203;DHT22;41077;52.956;6.796;2023-02-15T01:47:59;2.20;99.90
55203;DHT22;41077;52.956;6.796;2023-02-15T01:52:55;2.30;99.90
55203;DHT22;41077;52.956;6.796;2023-02-15T01:55:26;2.20;99.90
55203;DHT22;41077;52.956;6.796;2023-02-15T01:57:52;2.20;99.90
55203;DHT22;41077;52.956;6.796;2023-02-15T02:00:19;2.20;99.90
55203;DHT22;41077;52.956;6.796;2023-02-15T02:02:47;2.20;99.90
55203;DHT22;41077;52.956;6.796;2023-02-15T02:05:14;2.20;99.90
55203;DHT22;41077;52.956;6.796;2023-02-15T02:07:42;2.30;99.90
55203;DHT22;41077;52.956;6.796;2023-02-15T02:10:12;2.30;99.90
55203;DHT22;41077;52.956;6.796;2023-02-15T02:12:39;2.30;99.90
55203;DHT22;41077;52.956;6.796;2023-02-15T02:15:07;2.30;99.90
55203;DHT22;41077;52.956;6.796;2023-02-15T02:36:57;2.10;99.90
55203;DHT22;41077;52.956;6.796;2023-02-15T02:42:44;2.00;99.90
55203;DHT22;41077;52.956;6.796;2023-02-15T02:45:20;2.00;99.90
55203;DHT22;41077;52.956;6.796;2023-02-15T02:47:50;1.90;99.90
55203;DHT22;41077;52.956;6.796;2023-02-15T02:50:22;1.90;99.90
55203;DHT22;41077;52.956;6.796;2023-02-15T02:52:50;1.90;99.90
55203;DHT22;41077;52.956;6.796;2023-02-15T02:57:54;1.70;99.90
55203;DHT22;41077;52.956;6.796;2023-02-15T03:00:23;1.70;99.90
55203;DHT22;41077;52.956;6.796;2023-02-15T03:02:53;1.60;99.90
55203;DHT22;41077;52.956;6.796;2023-02-15T03:05:23;1.60;99.90
55203;DHT22;41077;52.956;6.796;2023-02-15T03:07:53;1.60;99.90
55203;DHT22;41077;52.956;6.796;2023-02-15T03:10:23;1.50;99.90
55203;DHT22;41077;52.956;6.796;2023-02-15T03:12:51;1.50;99.90
55203;DHT22;41077;52.956;6.796;2023-02-15T03:15:23;1.50;99.90
55203;DHT22;41077;52.956;6.796;2023-02-15T03:17:57;1.50;99.90
55203;DHT22;41077;52.956;6.796;2023-02-15T03:20:33;1.50;99.90
55203;DHT22;41077;52.956;6.796;2023-02-15T03:23:08;1.50;99.90
55203;DHT22;41077;52.956;6.796;2023-02-15T03:25:39;1.40;99.90
55203;DHT22;41077;52.956;6.796;2023-02-15T03:28:13;1.50;99.90
55203;DHT22;41077;52.956;6.796;2023-02-15T03:30:43;1.60;99.90
55203;DHT22;41077;52.956;6.796;2023-02-15T03:33:11;1.50;99.90
55203;DHT22;41077;52.956;6.796;2023-02-15T03:35:51;1.50;99.90
55203;DHT22;41077;52.956;6.796;2023-02-15T03:38:22;1.50;99.90
55203;DHT22;41077;52.956;6.796;2023-02-15T03:40:53;1.50;99.90
55203;DHT22;41077;52.956;6.796;2023-02-15T03:43:51;1.50;99.90
55203;DHT22;41077;52.956;6.796;2023-02-15T03:46:25;1.50;99.90
55203;DHT22;41077;52.956;6.796;2023-02-15T03:49:07;1.60;99.90
55203;DHT22;41077;52.956;6.796;2023-02-15T03:51:37;1.60;99.90
55203;DHT22;41077;52.956;6.796;2023-02-15T03:54:19;1.50;99.90
55203;DHT22;41077;52.956;6.796;2023-02-15T03:57:04;1.50;99.90
55203;DHT22;41077;52.956;6.796;2023-02-15T03:59:49;1.40;99.90
55203;DHT22;41077;52.956;6.796;2023-02-15T04:02:38;1.50;99.90
55203;DHT22;41077;52.956;6.796;2023-02-15T04:05:05;1.50;99.90
55203;DHT22;41077;52.956;6.796;2023-02-15T04:07:31;1.40;99.90
55203;DHT22;41077;52.956;6.796;2023-02-15T04:09:56;1.40;99.90
55203;DHT22;41077;52.956;6.796;2023-02-15T04:12:40;1.40;99.90
55203;DHT22;41077;52.956;6.796;2023-02-15T04:15:08;1.30;99.90
55203;DHT22;41077;52.956;6.796;2023-02-15T04:17:52;1.30;99.90
55203;DHT22;41077;52.956;6.796;2023-02-15T04:20:17;1.20;99.90
55203;DHT22;41077;52.956;6.796;2023-02-15T04:23:05;1.20;99.90
55203;DHT22;41077;52.956;6.796;2023-02-15T04:25:49;1.10;99.90
55203;DHT22;41077;52.956;6.796;2023-02-15T04:28:15;1.10;99.90
55203;DHT22;41077;52.956;6.796;2023-02-15T04:30:41;1.10;99.90
55203;DHT22;41077;52.956;6.796;2023-02-15T04:33:06;1.00;99.90
55203;DHT22;41077;52.956;6.796;2023-02-15T04:35:33;1.00;99.90
55203;DHT22;41077;52.956;6.796;2023-02-15T04:37:59;1.00;99.90
55203;DHT22;41077;52.956;6.796;2023-02-15T04:40:25;1.00;99.90
55203;DHT22;41077;52.956;6.796;2023-02-15T04:42:51;0.90;99.90
55203;DHT22;41077;52.956;6.796;2023-02-15T04:45:17;0.90;99.90
55203;DHT22;41077;52.956;6.796;2023-02-15T04:47:43;0.90;99.90
55203;DHT22;41077;52.956;6.796;2023-02-15T04:50:09;0.80;99.90
55203;DHT22;41077;52.956;6.796;2023-02-15T04:52:35;0.80;99.90
55203;DHT22;41077;52.956;6.796;2023-02-15T04:55:01;0.80;99.90
55203;DHT22;41077;52.956;6.796;2023-02-15T04:57:27;0.80;99.90
55203;DHT22;41077;52.956;6.796;2023-02-15T04:59:53;0.80;99.90
55203;DHT22;41077;52.956;6.796;2023-02-15T05:02:19;0.80;99.90
55203;DHT22;41077;52.956;6.796;2023-02-15T05:04:44;0.80;99.90
55203;DHT22;41077;52.956;6.796;2023-02-15T05:07:10;0.80;99.90
55203;DHT22;41077;52.956;6.796;2023-02-15T05:09:36;0.80;99.90
55203;DHT22;41077;52.956;6.796;2023-02-15T05:12:02;0.80;99.90
55203;DHT22;41077;52.956;6.796;2023-02-15T05:14:27;0.80;99.90
55203;DHT22;41077;52.956;6.796;2023-02-15T05:16:53;0.80;99.90
55203;DHT22;41077;52.956;6.796;2023-02-15T05:19:19;0.80;99.90
55203;DHT22;41077;52.956;6.796;2023-02-15T05:21:45;0.90;99.90
55203;DHT22;41077;52.956;6.796;2023-02-15T05:24:11;0.90;99.90
55203;DHT22;41077;52.956;6.796;2023-02-15T05:26:55;0.90;99.90
55203;DHT22;41077;52.956;6.796;2023-02-15T05:29:44;0.90;99.90
55203;DHT22;41077;52.956;6.796;2023-02-15T05:32:13;0.90;99.90
55203;DHT22;41077;52.956;6.796;2023-02-15T05:34:39;0.90;99.90
55203;DHT22;41077;52.956;6.796;2023-02-15T05:37:04;0.90;99.90
55203;DHT22;41077;52.956;6.796;2023-02-15T05:39:30;0.90;99.90
55203;DHT22;41077;52.956;6.796;2023-02-15T05:41:59;0.90;99.90
55203;DHT22;41077;52.956;6.796;2023-02-15T05:44:25;0.90;99.90
55203;DHT22;41077;52.956;6.796;2023-02-15T05:46:50;1.00;99.90
55203;DHT22;41077;52.956;6.796;2023-02-15T05:49:16;1.00;99.90
55203;DHT22;41077;52.956;6.796;2023-02-15T05:51:42;1.00;99.90
55203;DHT22;41077;52.956;6.796;2023-02-15T05:54:07;1.10;99.90
55203;DHT22;41077;52.956;6.796;2023-02-15T05:56:33;1.10;99.90
55203;DHT22;41077;52.956;6.796;2023-02-15T05:58:59;1.10;99.90
55203;DHT22;41077;52.956;6.796;2023-02-15T06:01:25;1.20;99.90
55203;DHT22;41077;52.956;6.796;2023-02-15T06:03:50;1.10;99.90
55203;DHT22;41077;52.956;6.796;2023-02-15T06:06:17;1.20;99.90
55203;DHT22;41077;52.956;6.796;2023-02-15T06:08:43;1.20;99.90
55203;DHT22;41077;52.956;6.796;2023-02-15T06:11:09;1.20;99.90
55203;DHT22;41077;52.956;6.796;2023-02-15T06:13:35;1.20;99.90
55203;DHT22;41077;52.956;6.796;2023-02-15T06:16:00;1.20;99.90
55203;DHT22;41077;52.956;6.796;2023-02-15T06:18:26;1.20;99.90
55203;DHT22;41077;52.956;6.796;2023-02-15T06:20:53;1.20;99.90
55203;DHT22;41077;52.956;6.796;2023-02-15T06:23:18;1.20;99.90
55203;DHT22;41077;52.956;6.796;2023-02-15T06:25:45;1.20;99.90
55203;DHT22;41077;52.956;6.796;2023-02-15T06:28:11;1.30;99.90
55203;DHT22;41077;52.956;6.796;2023-02-15T06:30:37;1.30;99.90
55203;DHT22;41077;52.956;6.796;2023-02-15T06:33:02;1.30;99.90
55203;DHT22;41077;52.956;6.796;2023-02-15T06:35:28;1.30;99.90
55203;DHT22;41077;52.956;6.796;2023-02-15T06:37:54;1.30;99.90
55203;DHT22;41077;52.956;6.796;2023-02-15T06:40:19;1.40;99.90
55203;DHT22;41077;52.956;6.796;2023-02-15T06:42:45;1.40;99.90
55203;DHT22;41077;52.956;6.796;2023-02-15T06:45:12;1.40;99.90
55203;DHT22;41077;52.956;6.796;2023-02-15T06:47:38;1.40;99.90
55203;DHT22;41077;52.956;6.796;2023-02-15T06:50:04;1.40;99.90
55203;DHT22;41077;52.956;6.796;2023-02-15T06:52:30;1.40;99.90
55203;DHT22;41077;52.956;6.796;2023-02-15T06:54:56;1.40;99.90
55203;DHT22;41077;52.956;6.796;2023-02-15T06:57:22;1.40;99.90
55203;DHT22;41077;52.956;6.796;2023-02-15T06:59:47;1.40;99.90
55203;DHT22;41077;52.956;6.796;2023-02-15T07:02:14;1.40;99.90
55203;DHT22;41077;52.956;6.796;2023-02-15T07:04:39;1.40;99.90
55203;DHT22;41077;52.956;6.796;2023-02-15T07:07:08;1.40;99.90
55203;DHT22;41077;52.956;6.796;2023-02-15T07:09:34;1.40;99.90
55203;DHT22;41077;52.956;6.796;2023-02-15T07:12:00;1.50;99.90
55203;DHT22;41077;52.956;6.796;2023-02-15T07:14:44;1.40;99.90
55203;DHT22;41077;52.956;6.796;2023-02-15T07:17:10;1.50;99.90
55203;DHT22;41077;52.956;6.796;2023-02-15T07:19:35;1.50;99.90
55203;DHT22;41077;52.956;6.796;2023-02-15T07:22:01;1.50;99.90
55203;DHT22;41077;52.956;6.796;2023-02-15T07:24:29;1.60;99.90
55203;DHT22;41077;52.956;6.796;2023-02-15T07:26:54;1.60;99.90
55203;DHT22;41077;52.956;6.796;2023-02-15T07:29:20;1.60;99.90
55203;DHT22;41077;52.956;6.796;2023-02-15T07:31:45;1.60;99.90
55203;DHT22;41077;52.956;6.796;2023-02-15T07:34:11;1.70;99.90
55203;DHT22;41077;52.956;6.796;2023-02-15T07:36:37;1.70;99.90
55203;DHT22;41077;52.956;6.796;2023-02-15T07:39:03;1.80;99.90
55203;DHT22;41077;52.956;6.796;2023-02-15T07:41:28;1.80;99.90
55203;DHT22;41077;52.956;6.796;2023-02-15T07:43:54;1.80;99.90
55203;DHT22;41077;52.956;6.796;2023-02-15T07:46:20;1.90;99.90
55203;DHT22;41077;52.956;6.796;2023-02-15T07:48:46;1.90;99.90
55203;DHT22;41077;52.956;6.796;2023-02-15T07:51:12;1.90;99.90
55203;DHT22;41077;52.956;6.796;2023-02-15T07:53:40;2.00;99.90
55203;DHT22;41077;52.956;6.796;2023-02-15T07:56:15;2.00;99.90
55203;DHT22;41077;52.956;6.796;2023-02-15T07:58:41;2.10;99.90
55203;DHT22;41077;52.956;6.796;2023-02-15T08:01:24;2.10;99.90
55203;DHT22;41077;52.956;6.796;2023-02-15T08:03:50;2.20;99.90
55203;DHT22;41077;52.956;6.796;2023-02-15T08:06:16;2.20;99.90
55203;DHT22;41077;52.956;6.796;2023-02-15T08:08:42;2.20;99.90
55203;DHT22;41077;52.956;6.796;2023-02-15T08:11:20;2.30;99.90
55203;DHT22;41077;52.956;6.796;2023-02-15T08:14:08;2.40;99.90
55203;DHT22;41077;52.956;6.796;2023-02-15T08:16:42;2.40;99.90
55203;DHT22;41077;52.956;6.796;2023-02-15T08:21:47;2.50;99.90
55203;DHT22;41077;52.956;6.796;2023-02-15T08:24:15;2.60;99.90
55203;DHT22;41077;52.956;6.796;2023-02-15T08:26:41;2.60;99.90
55203;DHT22;41077;52.956;6.796;2023-02-15T08:29:08;2.70;99.90
55203;DHT22;41077;52.956;6.796;2023-02-15T08:31:34;2.80;99.90
55203;DHT22;41077;52.956;6.796;2023-02-15T08:34:01;2.80;99.90
55203;DHT22;41077;52.956;6.796;2023-02-15T08:36:28;2.80;99.90
55203;DHT22;41077;52.956;6.796;2023-02-15T08:38:57;2.80;99.90
55203;DHT22;41077;52.956;6.796;2023-02-15T08:41:26;2.90;99.90
55203;DHT22;41077;52.956;6.796;2023-02-15T08:43:53;3.00;99.90
55203;DHT22;41077;52.956;6.796;2023-02-15T08:46:20;3.00;99.90
55203;DHT22;41077;52.956;6.796;2023-02-15T08:48:46;3.10;99.90
55203;DHT22;41077;52.956;6.796;2023-02-15T08:51:27;3.10;99.90
55203;DHT22;41077;52.956;6.796;2023-02-15T08:53:55;3.20;99.90
55203;DHT22;41077;52.956;6.796;2023-02-15T08:56:24;3.20;99.90
55203;DHT22;41077;52.956;6.796;2023-02-15T08:58:50;3.20;99.90
55203;DHT22;41077;52.956;6.796;2023-02-15T09:01:18;3.30;99.90
55203;DHT22;41077;52.956;6.796;2023-02-15T09:03:47;3.40;99.90
55203;DHT22;41077;52.956;6.796;2023-02-15T09:06:13;3.40;99.90
55203;DHT22;41077;52.956;6.796;2023-02-15T09:08:39;3.50;99.90
55203;DHT22;41077;52.956;6.796;2023-02-15T09:11:11;3.60;99.90
55203;DHT22;41077;52.956;6.796;2023-02-15T09:13:38;3.70;99.90
55203;DHT22;41077;52.956;6.796;2023-02-15T09:16:07;3.70;99.90
55203;DHT22;41077;52.956;6.796;2023-02-15T09:18:35;3.80;99.90
55203;DHT22;41077;52.956;6.796;2023-02-15T09:21:06;3.90;99.90
55203;DHT22;41077;52.956;6.796;2023-02-15T09:23:32;3.90;99.90
55203;DHT22;41077;52.956;6.796;2023-02-15T09:26:05;4.00;99.90
55203;DHT22;41077;52.956;6.796;2023-02-15T09:28:31;4.00;99.90
55203;DHT22;41077;52.956;6.796;2023-02-15T09:31:05;4.10;99.90
55203;DHT22;41077;52.956;6.796;2023-02-15T09:33:34;4.20;99.90
55203;DHT22;41077;52.956;6.796;2023-02-15T09:36:00;4.30;99.90
55203;DHT22;41077;52.956;6.796;2023-02-15T09:38:26;4.30;99.90
55203;DHT22;41077;52.956;6.796;2023-02-15T09:41:08;4.40;99.90
55203;DHT22;41077;52.956;6.796;2023-02-15T09:44:00;4.50;99.90
55203;DHT22;41077;52.956;6.796;2023-02-15T09:46:47;4.60;99.90
55203;DHT22;41077;52.956;6.796;2023-02-15T09:49:41;4.80;99.90
55203;DHT22;41077;52.956;6.796;2023-02-15T09:55:15;5.00;99.90
55203;DHT22;41077;52.956;6.796;2023-02-15T10:00:39;5.20;99.90
55203;DHT22;41077;52.956;6.796;2023-02-15T10:03:23;5.30;99.90
55203;DHT22;41077;52.956;6.796;2023-02-15T10:05:55;5.40;99.90
55203;DHT22;41077;52.956;6.796;2023-02-15T10:08:27;5.50;99.90
55203;DHT22;41077;52.956;6.796;2023-02-15T10:16:45;5.70;99.90
55203;DHT22;41077;52.956;6.796;2023-02-15T10:19:39;5.80;99.90
55203;DHT22;41077;52.956;6.796;2023-02-15T10:25:04;5.90;99.90
55203;DHT22;41077;52.956;6.796;2023-02-15T10:27:48;6.00;99.90
55203;DHT22;41077;52.956;6.796;2023-02-15T10:30:17;6.10;99.90
55203;DHT22;41077;52.956;6.796;2023-02-15T10:32:52;6.20;99.90
55203;DHT22;41077;52.956;6.796;2023-02-15T10:41:23;6.60;99.90
55203;DHT22;41077;52.956;6.796;2023-02-15T10:51:42;6.90;99.90
55203;DHT22;41077;52.956;6.796;2023-02-15T10:54:24;7.00;99.90
55203;DHT22;41077;52.956;6.796;2023-02-15T11:05:24;7.20;99.90
55203;DHT22;41077;52.956;6.796;2023-02-15T11:07:54;7.30;99.90
55203;DHT22;41077;52.956;6.796;2023-02-15T11:12:52;7.50;99.90
55203;DHT22;41077;52.956;6.796;2023-02-15T11:15:29;7.60;99.90
55203;DHT22;41077;52.956;6.796;2023-02-15T11:18:00;7.80;99.90
55203;DHT22;41077;52.956;6.796;2023-02-15T11:20:35;7.90;99.90
55203;DHT22;41077;52.956;6.796;2023-02-15T11:23:06;7.90;99.90
55203;DHT22;41077;52.956;6.796;2023-02-15T11:25:36;8.00;99.90
55203;DHT22;41077;52.956;6.796;2023-02-15T11:28:04;8.20;99.90
55203;DHT22;41077;52.956;6.796;2023-02-15T11:30:43;8.20;99.90
55203;DHT22;41077;52.956;6.796;2023-02-15T11:33:34;8.40;99.90
55203;DHT22;41077;52.956;6.796;2023-02-15T11:36:18;8.50;99.90
55203;DHT22;41077;52.956;6.796;2023-02-15T11:38:49;8.70;99.90
55203;DHT22;41077;52.956;6.796;2023-02-15T11:41:22;8.80;99.90
55203;DHT22;41077;52.956;6.796;2023-02-15T11:44:12;8.90;99.90
55203;DHT22;41077;52.956;6.796;2023-02-15T11:46:41;8.90;99.90
55203;DHT22;41077;52.956;6.796;2023-02-15T11:51:52;9.10;99.90
55203;DHT22;41077;52.956;6.796;2023-02-15T11:54:28;9.30;99.90
55203;DHT22;41077;52.956;6.796;2023-02-15T12:02:46;9.50;99.90
55203;DHT22;41077;52.956;6.796;2023-02-15T12:05:21;9.70;99.90
55203;DHT22;41077;52.956;6.796;2023-02-15T12:08:02;9.70;99.90
55203;DHT22;41077;52.956;6.796;2023-02-15T12:10:38;9.80;99.90
55203;DHT22;41077;52.956;6.796;2023-02-15T12:13:15;9.90;99.90
55203;DHT22;41077;52.956;6.796;2023-02-15T12:15:49;10.00;99.90
55203;DHT22;41077;52.956;6.796;2023-02-15T12:21:08;10.30;99.90
55203;DHT22;41077;52.956;6.796;2023-02-15T12:23:48;10.30;99.90
55203;DHT22;41077;52.956;6.796;2023-02-15T12:26:31;10.30;99.90
55203;DHT22;41077;52.956;6.796;2023-02-15T12:29:06;10.40;99.90
55203;DHT22;41077;52.956;6.796;2023-02-15T12:31:37;10.40;99.90
55203;DHT22;41077;52.956;6.796;2023-02-15T12:34:11;10.50;99.90
55203;DHT22;41077;52.956;6.796;2023-02-15T12:36:43;10.60;99.90
55203;DHT22;41077;52.956;6.796;2023-02-15T12:39:18;10.70;99.90
55203;DHT22;41077;52.956;6.796;2023-02-15T12:44:22;10.90;99.90
55203;DHT22;41077;52.956;6.796;2023-02-15T12:49:41;10.90;99.90
55203;DHT22;41077;52.956;6.796;2023-02-15T12:54:46;11.10;99.90
55203;DHT22;41077;52.956;6.796;2023-02-15T12:59:53;11.20;99.90
55203;DHT22;41077;52.956;6.796;2023-02-15T13:02:42;11.20;99.90
55203;DHT22;41077;52.956;6.796;2023-02-15T13:07:58;11.40;99.90
55203;DHT22;41077;52.956;6.796;2023-02-15T13:10:32;11.50;99.90
55203;DHT22;41077;52.956;6.796;2023-02-15T13:12:59;11.50;99.90
55203;DHT22;41077;52.956;6.796;2023-02-15T13:15:40;11.60;99.90
55203;DHT22;41077;52.956;6.796;2023-02-15T13:18:15;11.70;99.90
55203;DHT22;41077;52.956;6.796;2023-02-15T13:20:42;11.70;99.90
55203;DHT22;41077;52.956;6.796;2023-02-15T13:23:29;11.70;99.90
55203;DHT22;41077;52.956;6.796;2023-02-15T13:25:59;11.70;99.90
55203;DHT22;41077;52.956;6.796;2023-02-15T13:28:58;11.70;99.90
55203;DHT22;41077;52.956;6.796;2023-02-15T13:31:28;11.70;99.90
55203;DHT22;41077;52.956;6.796;2023-02-15T13:34:07;11.80;99.90
55203;DHT22;41077;52.956;6.796;2023-02-15T13:36:45;11.80;99.90
55203;DHT22;41077;52.956;6.796;2023-02-15T13:41:53;11.70;99.90
55203;DHT22;41077;52.956;6.796;2023-02-15T13:50:16;11.50;99.90
55203;DHT22;41077;52.956;6.796;2023-02-15T13:55:37;11.50;99.90
55203;DHT22;41077;52.956;6.796;2023-02-15T14:01:09;11.40;99.90
55203;DHT22;41077;52.956;6.796;2023-02-15T14:09:28;11.50;99.90
55203;DHT22;41077;52.956;6.796;2023-02-15T14:17:48;11.80;99.90
55203;DHT22;41077;52.956;6.796;2023-02-15T14:28:25;12.10;99.90
55203;DHT22;41077;52.956;6.796;2023-02-15T14:30:54;12.10;99.90
55203;DHT22;41077;52.956;6.796;2023-02-15T14:36:01;12.00;99.90
55203;DHT22;41077;52.956;6.796;2023-02-15T14:38:40;11.90;99.90
55203;DHT22;41077;52.956;6.796;2023-02-15T14:41:22;11.70;99.90
55203;DHT22;41077;52.956;6.796;2023-02-15T14:46:30;11.50;99.90
55203;DHT22;41077;52.956;6.796;2023-02-15T14:49:12;11.40;99.90
55203;DHT22;41077;52.956;6.796;2023-02-15T14:59:57;11.10;99.90
55203;DHT22;41077;52.956;6.796;2023-02-15T15:07:45;11.00;99.90
55203;DHT22;41077;52.956;6.796;2023-02-15T15:15:38;10.90;99.90
55203;DHT22;41077;52.956;6.796;2023-02-15T15:18:10;10.90;99.90
55203;DHT22;41077;52.956;6.796;2023-02-15T15:20:56;10.80;99.90
55203;DHT22;41077;52.956;6.796;2023-02-15T15:39:52;10.50;99.90
55203;DHT22;41077;52.956;6.796;2023-02-15T15:48:34;10.30;99.90
55203;DHT22;41077;52.956;6.796;2023-02-15T15:51:21;10.20;99.90
55203;DHT22;41077;52.956;6.796;2023-02-15T15:53:49;10.20;99.90
55203;DHT22;41077;52.956;6.796;2023-02-15T15:56:29;10.10;99.90
55203;DHT22;41077;52.956;6.796;2023-02-15T15:59:07;10.10;99.90
55203;DHT22;41077;52.956;6.796;2023-02-15T16:01:45;10.00;99.90
55203;DHT22;41077;52.956;6.796;2023-02-15T16:04:30;9.90;99.90
55203;DHT22;41077;52.956;6.796;2023-02-15T16:06:57;9.90;99.90
55203;DHT22;41077;52.956;6.796;2023-02-15T16:09:25;9.80;99.90
55203;DHT22;41077;52.956;6.796;2023-02-15T16:11:54;9.80;99.90
55203;DHT22;41077;52.956;6.796;2023-02-15T16:14:28;9.70;99.90
55203;DHT22;41077;52.956;6.796;2023-02-15T16:16:58;9.60;99.90
55203;DHT22;41077;52.956;6.796;2023-02-15T16:19:30;9.60;99.90
55203;DHT22;41077;52.956;6.796;2023-02-15T16:21:59;9.50;99.90
55203;DHT22;41077;52.956;6.796;2023-02-15T16:29:37;9.40;99.90
55203;DHT22;41077;52.956;6.796;2023-02-15T16:32:26;9.20;99.90
55203;DHT22;41077;52.956;6.796;2023-02-15T16:34:57;9.20;99.90
55203;DHT22;41077;52.956;6.796;2023-02-15T16:37:31;9.10;99.90
55203;DHT22;41077;52.956;6.796;2023-02-15T16:39:57;9.00;99.90
55203;DHT22;41077;52.956;6.796;2023-02-15T16:42:23;9.00;99.90
55203;DHT22;41077;52.956;6.796;2023-02-15T16:45:22;8.90;99.90
55203;DHT22;41077;52.956;6.796;2023-02-15T16:47:49;8.90;99.90
55203;DHT22;41077;52.956;6.796;2023-02-15T16:50:22;8.90;99.90
55203;DHT22;41077;52.956;6.796;2023-02-15T16:52:49;8.80;99.90
55203;DHT22;41077;52.956;6.796;2023-02-15T16:55:41;8.80;99.90
55203;DHT22;41077;52.956;6.796;2023-02-15T16:58:14;8.70;99.90
55203;DHT22;41077;52.956;6.796;2023-02-15T17:00:41;8.60;99.90
55203;DHT22;41077;52.956;6.796;2023-02-15T17:08:33;8.50;99.90
55203;DHT22;41077;52.956;6.796;2023-02-15T17:13:26;8.40;99.90
55203;DHT22;41077;52.956;6.796;2023-02-15T17:18:33;8.30;99.90
55203;DHT22;41077;52.956;6.796;2023-02-15T17:21:19;8.20;99.90
55203;DHT22;41077;52.956;6.796;2023-02-15T17:23:48;8.10;99.90
55203;DHT22;41077;52.956;6.796;2023-02-15T17:26:24;8.10;99.90
55203;DHT22;41077;52.956;6.796;2023-02-15T17:29:02;8.10;99.90
55203;DHT22;41077;52.956;6.796;2023-02-15T17:31:35;8.10;99.90
55203;DHT22;41077;52.956;6.796;2023-02-15T17:34:01;8.10;99.90
55203;DHT22;41077;52.956;6.796;2023-02-15T17:36:28;8.20;99.90
55203;DHT22;41077;52.956;6.796;2023-02-15T17:41:28;8.20;99.90
55203;DHT22;41077;52.956;6.796;2023-02-15T17:43:54;8.20;99.90
55203;DHT22;41077;52.956;6.796;2023-02-15T17:46:20;8.20;99.90
55203;DHT22;41077;52.956;6.796;2023-02-15T17:48:51;8.10;99.90
55203;DHT22;41077;52.956;6.796;2023-02-15T17:51:18;8.20;99.90
55203;DHT22;41077;52.956;6.796;2023-02-15T17:53:45;8.10;99.90
55203;DHT22;41077;52.956;6.796;2023-02-15T17:56:36;8.10;99.90
55203;DHT22;41077;52.956;6.796;2023-02-15T17:59:03;8.10;99.90
55203;DHT22;41077;52.956;6.796;2023-02-15T18:01:33;8.10;99.90
55203;DHT22;41077;52.956;6.796;2023-02-15T18:04:18;8.10;99.90
55203;DHT22;41077;52.956;6.796;2023-02-15T18:07:03;8.20;99.90
55203;DHT22;41077;52.956;6.796;2023-02-15T18:09:47;8.20;99.90
55203;DHT22;41077;52.956;6.796;2023-02-15T18:12:35;8.20;99.90
55203;DHT22;41077;52.956;6.796;2023-02-15T18:15:04;8.10;99.90
55203;DHT22;41077;52.956;6.796;2023-02-15T18:17:36;8.20;99.90
55203;DHT22;41077;52.956;6.796;2023-02-15T18:20:37;8.20;99.90
55203;DHT22;41077;52.956;6.796;2023-02-15T18:22:56;8.20;99.90
55203;DHT22;41077;52.956;6.796;2023-02-15T18:25:22;8.20;99.90
55203;DHT22;41077;52.956;6.796;2023-02-15T18:27:50;8.20;99.90
55203;DHT22;41077;52.956;6.796;2023-02-15T18:30:18;8.20;99.90
55203;DHT22;41077;52.956;6.796;2023-02-15T18:32:45;8.10;99.90
55203;DHT22;41077;52.956;6.796;2023-02-15T18:35:16;8.10;99.90
55203;DHT22;41077;52.956;6.796;2023-02-15T18:37:43;8.10;99.90
55203;DHT22;41077;52.956;6.796;2023-02-15T18:40:20;8.10;99.90
55203;DHT22;41077;52.956;6.796;2023-02-15T18:42:46;8.00;99.90
55203;DHT22;41077;52.956;6.796;2023-02-15T18:45:19;8.00;99.90
55203;DHT22;41077;52.956;6.796;2023-02-15T18:47:47;7.90;99.90
55203;DHT22;41077;52.956;6.796;2023-02-15T18:50:15;7.90;99.90
55203;DHT22;41077;52.956;6.796;2023-02-15T18:52:42;7.90;99.90
55203;DHT22;41077;52.956;6.796;2023-02-15T18:55:38;7.80;99.90
55203;DHT22;41077;52.956;6.796;2023-02-15T18:58:04;7.70;99.90
55203;DHT22;41077;52.956;6.796;2023-02-15T19:00:32;7.80;99.90
55203;DHT22;41077;52.956;6.796;2023-02-15T19:02:58;7.70;99.90
55203;DHT22;41077;52.956;6.796;2023-02-15T19:05:26;7.70;99.90
55203;DHT22;41077;52.956;6.796;2023-02-15T19:07:53;7.70;99.90
55203;DHT22;41077;52.956;6.796;2023-02-15T19:10:24;7.50;99.90
55203;DHT22;41077;52.956;6.796;2023-02-15T19:12:51;7.50;99.90
55203;DHT22;41077;52.956;6.796;2023-02-15T19:15:21;7.50;99.90
55203;DHT22;41077;52.956;6.796;2023-02-15T19:17:47;7.50;99.90
55203;DHT22;41077;52.956;6.796;2023-02-15T19:20:24;7.50;99.90
55203;DHT22;41077;52.956;6.796;2023-02-15T19:22:51;7.50;99.90